createdAt,value
2023-02-04T00:00:15.596Z,3.27
2023-02-04T00:02:42.653Z,2.83
2023-02-04T00:05:11.530Z,2.77
2023-02-04T00:07:41.205Z,4.53
2023-02-04T00:10:09.717Z,4.60
2023-02-04T00:12:36.976Z,7.17
2023-02-04T00:15:04.612Z,4.20
2023-02-04T00:17:31.737Z,4.77
2023-02-04T00:19:58.560Z,5.10
2023-02-04T00:22:28.220Z,3.90
2023-02-04T00:24:55.074Z,4.83
2023-02-04T00:27:21.968Z,7.40
2023-02-04T00:29:48.823Z,6.10
2023-02-04T00:32:15.809Z,8.43
2023-02-04T00:34:42.668Z,6.03
2023-02-04T00:37:09.545Z,6.20
2023-02-04T00:39:36.681Z,6.47
2023-02-04T00:42:05.607Z,6.27
2023-02-04T00:44:32.583Z,6.43
2023-02-04T00:46:59.543Z,10.73
2023-02-04T00:49:26.403Z,8.63
2023-02-04T00:51:53.284Z,6.33
2023-02-04T00:54:20.148Z,13.47
2023-02-04T00:56:47.110Z,4.90
2023-02-04T00:59:14.461Z,7.50
2023-02-04T01:01:41.308Z,6.73
2023-02-04T01:04:08.248Z,9.33
2023-02-04T01:06:35.132Z,6.07
2023-02-04T01:09:02.995Z,5.77
2023-02-04T01:11:31.444Z,7.53
2023-02-04T01:13:58.893Z,9.67
2023-02-04T01:16:25.857Z,9.33
2023-02-04T01:18:55.710Z,9.77
2023-02-04T01:21:23.816Z,10.10
2023-02-04T01:23:50.924Z,6.13
2023-02-04T01:26:19.504Z,7.60
2023-02-04T01:28:46.710Z,6.00
2023-02-04T01:31:14.100Z,7.87
2023-02-04T01:33:40.999Z,7.67
2023-02-04T01:36:08.388Z,6.60
2023-02-04T01:38:35.277Z,5.23
2023-02-04T01:41:02.751Z,7.90
2023-02-04T01:43:29.719Z,10.40
2023-02-04T01:45:56.742Z,8.47
2023-02-04T01:48:24.211Z,12.07
2023-02-04T01:50:55.248Z,8.57
2023-02-04T01:53:25.155Z,14.63
2023-02-04T01:55:52.918Z,8.33
2023-02-04T01:58:20.246Z,11.67
2023-02-04T02:00:47.192Z,11.73
2023-02-04T02:03:14.079Z,11.07
2023-02-04T02:05:46.123Z,12.37
2023-02-04T02:08:13.918Z,9.90
2023-02-04T02:10:44.374Z,10.77
2023-02-04T02:13:18.890Z,12.67
2023-02-04T02:15:46.981Z,12.33
2023-02-04T02:18:14.268Z,11.03
2023-02-04T02:20:43.979Z,10.20
2023-02-04T02:23:50.034Z,11.30
2023-02-04T02:26:18.598Z,8.20
2023-02-04T02:28:47.707Z,12.57
2023-02-04T02:31:16.701Z,12.23
2023-02-04T02:33:43.630Z,10.07
2023-02-04T02:36:11.027Z,9.10
2023-02-04T02:38:38.162Z,7.23
2023-02-04T02:41:05.599Z,7.93
2023-02-04T02:43:32.577Z,9.10
2023-02-04T02:46:01.187Z,11.50
2023-02-04T02:48:28.077Z,7.27
2023-02-04T02:50:55.124Z,13.17
2023-02-04T02:53:22.183Z,7.63
2023-02-04T02:55:49.543Z,15.37
2023-02-04T02:58:33.474Z,10.63
2023-02-04T03:01:05.656Z,9.20
2023-02-04T03:03:49.202Z,10.00
2023-02-04T03:06:26.780Z,11.07
2023-02-04T03:08:56.887Z,7.93
2023-02-04T03:11:26.185Z,10.40
2023-02-04T03:13:53.570Z,8.37
2023-02-04T03:16:20.454Z,6.13
2023-02-04T03:18:47.975Z,6.67
2023-02-04T03:21:14.902Z,10.63
2023-02-04T03:23:41.733Z,11.40
2023-02-04T03:26:08.611Z,6.07
2023-02-04T03:28:40.718Z,6.90
2023-02-04T03:31:07.605Z,11.27
2023-02-04T03:33:35.911Z,8.50
2023-02-04T03:36:02.810Z,9.30
2023-02-04T03:38:29.765Z,7.83
2023-02-04T03:40:56.569Z,11.17
2023-02-04T03:43:23.406Z,6.73
2023-02-04T03:45:50.234Z,7.37
2023-02-04T03:48:17.130Z,7.03
2023-02-04T03:50:43.949Z,10.40
2023-02-04T03:53:11.071Z,9.73
2023-02-04T03:55:38.111Z,8.87
2023-02-04T03:58:05.342Z,8.97
2023-02-04T04:00:32.535Z,4.93
2023-02-04T04:03:00.101Z,8.17
2023-02-04T04:05:28.619Z,8.17
2023-02-04T04:07:55.767Z,6.83
2023-02-04T04:10:22.682Z,8.23
2023-02-04T04:12:49.545Z,8.93
2023-02-04T04:15:16.569Z,8.63
2023-02-04T04:17:43.399Z,8.47
2023-02-04T04:20:11.036Z,8.30
2023-02-04T04:22:37.846Z,10.40
2023-02-04T04:25:05.463Z,10.90
2023-02-04T04:27:32.592Z,11.50
2023-02-04T04:29:59.418Z,11.53
2023-02-04T04:32:26.224Z,10.03
2023-02-04T04:34:53.062Z,12.07
2023-02-04T04:37:19.938Z,7.83
2023-02-04T04:39:46.713Z,11.60
2023-02-04T04:42:13.617Z,11.90
2023-02-04T04:44:40.470Z,9.53
2023-02-04T04:47:07.255Z,10.37
2023-02-04T04:49:34.114Z,10.60
2023-02-04T04:52:00.988Z,8.87
2023-02-04T04:54:27.852Z,8.17
2023-02-04T04:56:54.666Z,9.67
2023-02-04T04:59:21.560Z,9.97
2023-02-04T05:01:48.388Z,10.07
2023-02-04T05:04:15.245Z,11.00
2023-02-04T05:06:42.086Z,8.23
2023-02-04T05:09:09.719Z,12.67
2023-02-04T05:11:36.757Z,9.17
2023-02-04T05:14:03.607Z,7.83
2023-02-04T05:16:30.500Z,10.00
2023-02-04T05:18:57.343Z,10.30
2023-02-04T05:21:24.232Z,6.87
2023-02-04T05:23:51.023Z,10.03
2023-02-04T05:26:29.579Z,10.03
2023-02-04T05:28:57.350Z,12.27
2023-02-04T05:31:24.283Z,10.90
2023-02-04T05:33:51.216Z,7.67
2023-02-04T05:36:17.994Z,11.20
2023-02-04T05:38:44.792Z,11.30
2023-02-04T05:41:11.802Z,12.13
2023-02-04T05:43:39.892Z,11.90
2023-02-04T05:46:06.792Z,8.40
2023-02-04T05:48:33.668Z,15.30
2023-02-04T05:51:00.544Z,10.30
2023-02-04T05:53:27.384Z,11.50
2023-02-04T05:55:54.299Z,13.57
2023-02-04T05:58:21.134Z,8.30
2023-02-04T06:00:47.947Z,9.00
2023-02-04T06:03:14.846Z,9.07
2023-02-04T06:05:41.836Z,9.60
2023-02-04T06:08:08.684Z,10.83
2023-02-04T06:10:35.505Z,10.70
2023-02-04T06:13:02.286Z,8.87
2023-02-04T06:15:29.153Z,10.07
2023-02-04T06:17:56.275Z,9.87
2023-02-04T06:20:23.209Z,9.17
2023-02-04T06:22:51.730Z,6.23
2023-02-04T06:25:19.120Z,9.67
2023-02-04T06:27:46.047Z,8.47
2023-02-04T06:30:14.175Z,9.63
2023-02-04T06:32:41.430Z,9.10
2023-02-04T06:35:09.614Z,10.33
2023-02-04T06:37:36.462Z,9.40
2023-02-04T06:40:03.341Z,12.33
2023-02-04T06:42:30.143Z,5.73
2023-02-04T06:44:56.907Z,12.57
2023-02-04T06:47:23.997Z,7.10
2023-02-04T06:49:50.849Z,8.37
2023-02-04T06:52:17.698Z,9.30
2023-02-04T06:54:44.493Z,10.57
2023-02-04T06:57:12.292Z,10.17
2023-02-04T06:59:40.492Z,9.93
2023-02-04T07:02:08.930Z,12.17
2023-02-04T07:04:35.848Z,5.30
2023-02-04T07:07:02.864Z,10.53
2023-02-04T07:09:29.849Z,11.60
2023-02-04T07:11:56.697Z,8.07
2023-02-04T07:14:23.675Z,8.77
2023-02-04T07:16:50.479Z,6.63
2023-02-04T07:19:17.763Z,9.40
2023-02-04T07:21:45.280Z,7.57
2023-02-04T07:24:12.092Z,12.20
2023-02-04T07:26:38.994Z,7.93
2023-02-04T07:29:08.481Z,10.93
2023-02-04T07:31:39.140Z,8.17
2023-02-04T07:34:06.006Z,11.30
2023-02-04T07:36:33.307Z,9.37
2023-02-04T07:39:00.118Z,8.37
2023-02-04T07:41:26.952Z,7.50
2023-02-04T07:43:53.840Z,9.47
2023-02-04T07:46:20.732Z,10.70
2023-02-04T07:48:47.635Z,7.60
2023-02-04T07:51:14.486Z,8.27
2023-02-04T07:53:41.297Z,10.27
2023-02-04T07:56:08.220Z,9.53
2023-02-04T07:58:35.010Z,10.03
2023-02-04T08:01:02.124Z,6.70
2023-02-04T08:03:29.063Z,8.97
2023-02-04T08:05:56.073Z,8.10
2023-02-04T08:08:23.008Z,7.33
2023-02-04T08:10:50.330Z,7.03
2023-02-04T08:13:17.171Z,8.63
2023-02-04T08:15:44.093Z,9.80
2023-02-04T08:18:10.946Z,7.13
2023-02-04T08:20:37.800Z,10.30
2023-02-04T08:23:04.663Z,5.70
2023-02-04T08:25:31.482Z,8.83
2023-02-04T08:27:58.345Z,7.77
2023-02-04T08:30:25.322Z,8.37
2023-02-04T08:32:52.389Z,6.80
2023-02-04T08:35:19.582Z,5.80
2023-02-04T08:37:46.383Z,5.97
2023-02-04T08:40:13.206Z,8.57
2023-02-04T08:42:39.977Z,6.37
2023-02-04T08:45:07.460Z,6.50
2023-02-04T08:47:34.323Z,8.33
2023-02-04T08:50:01.175Z,9.57
2023-02-04T08:52:28.019Z,8.13
2023-02-04T08:54:54.816Z,8.43
2023-02-04T08:57:21.726Z,2.87
2023-02-04T08:59:48.543Z,1.27
2023-02-04T09:02:15.420Z,3.20
2023-02-04T09:04:42.249Z,2.73
2023-02-04T09:07:09.127Z,2.33
2023-02-04T09:09:35.938Z,2.40
2023-02-04T09:12:03.237Z,5.13
2023-02-04T09:14:30.129Z,2.63
2023-02-04T09:16:56.976Z,2.63
2023-02-04T09:19:25.608Z,2.67
2023-02-04T09:21:53.874Z,1.93
2023-02-04T09:24:23.568Z,2.70
2023-02-04T09:26:50.699Z,1.33
2023-02-04T09:29:17.531Z,1.80
2023-02-04T09:31:44.406Z,2.50
2023-02-04T09:34:11.378Z,2.97
2023-02-04T09:36:39.094Z,1.00
2023-02-04T09:39:07.229Z,1.80
2023-02-04T09:41:35.156Z,2.50
2023-02-04T09:44:04.373Z,0.97
2023-02-04T09:46:33.076Z,1.93
2023-02-04T09:49:00.420Z,2.80
2023-02-04T09:51:29.826Z,1.30
2023-02-04T09:54:19.128Z,2.07
2023-02-04T09:56:46.577Z,3.53
2023-02-04T09:59:22.778Z,2.60
2023-02-04T10:02:00.917Z,1.97
2023-02-04T10:04:28.658Z,1.30
2023-02-04T10:06:58.924Z,3.13
2023-02-04T10:09:26.033Z,1.90
2023-02-04T10:11:52.912Z,2.90
2023-02-04T10:14:22.788Z,1.27
2023-02-04T10:17:01.364Z,1.87
2023-02-04T10:19:30.649Z,1.87
2023-02-04T10:21:57.950Z,1.97
2023-02-04T10:24:26.817Z,2.40
2023-02-04T10:26:54.404Z,1.63
2023-02-04T10:29:25.623Z,1.47
2023-02-04T10:31:52.873Z,0.77
2023-02-04T10:34:22.079Z,1.93
2023-02-04T10:36:55.777Z,2.00
2023-02-04T10:39:26.055Z,1.13
2023-02-04T10:41:58.895Z,0.83
2023-02-04T10:44:32.533Z,2.23
2023-02-04T10:47:19.040Z,0.70
2023-02-04T10:50:17.506Z,0.87
2023-02-04T10:52:49.909Z,2.20
2023-02-04T10:55:24.165Z,1.30
2023-02-04T10:57:53.171Z,1.33
2023-02-04T11:00:23.547Z,1.37
2023-02-04T11:03:04.024Z,1.73
2023-02-04T11:05:36.237Z,4.70
2023-02-04T11:08:26.451Z,5.80
2023-02-04T11:11:05.269Z,3.03
2023-02-04T11:13:43.947Z,2.13
2023-02-04T11:16:18.583Z,1.13
2023-02-04T11:18:55.415Z,0.80
2023-02-04T11:21:31.908Z,1.17
2023-02-04T11:24:14.044Z,1.47
2023-02-04T11:26:46.402Z,0.50
2023-02-04T11:29:15.911Z,0.90
2023-02-04T11:31:49.293Z,1.27
2023-02-04T11:34:16.230Z,1.07
2023-02-04T11:37:01.361Z,1.57
2023-02-04T11:39:49.011Z,0.60
2023-02-04T11:42:31.099Z,1.63
2023-02-04T11:45:14.775Z,0.80
2023-02-04T11:47:43.102Z,1.00
2023-02-04T11:50:30.577Z,1.47
2023-02-04T11:53:02.217Z,1.50
2023-02-04T11:55:31.651Z,0.97
2023-02-04T11:57:58.759Z,1.00
2023-02-04T12:00:30.325Z,0.80
2023-02-04T12:03:07.910Z,1.00
2023-02-04T12:05:44.312Z,1.00
2023-02-04T12:08:21.675Z,0.80
2023-02-04T12:11:11.863Z,1.17
2023-02-04T12:13:52.084Z,1.43
2023-02-04T12:16:19.429Z,1.63
2023-02-04T12:18:46.357Z,0.83
2023-02-04T12:21:14.436Z,1.00
2023-02-04T12:23:44.362Z,1.10
2023-02-04T12:26:12.608Z,1.17
2023-02-04T12:28:39.910Z,1.87
2023-02-04T12:31:06.827Z,0.90
2023-02-04T12:33:33.770Z,1.43
2023-02-04T12:36:00.592Z,1.20
2023-02-04T12:38:28.196Z,0.50
2023-02-04T12:40:55.071Z,0.87
2023-02-04T12:43:21.993Z,0.93
2023-02-04T12:45:49.838Z,0.47
2023-02-04T12:48:17.120Z,1.90
2023-02-04T12:50:44.095Z,0.37
2023-02-04T12:53:11.043Z,0.90
2023-02-04T12:55:37.908Z,1.23
2023-02-04T12:58:05.164Z,0.90
2023-02-04T13:00:32.117Z,0.80
2023-02-04T13:02:59.222Z,2.17
2023-02-04T13:05:26.934Z,17.77
2023-02-04T13:07:53.999Z,2.73
2023-02-04T13:10:21.855Z,1.50
2023-02-04T13:12:48.884Z,2.13
2023-02-04T13:15:16.172Z,2.67
2023-02-04T13:17:43.181Z,3.30
2023-02-04T13:20:10.964Z,2.83
2023-02-04T13:22:37.744Z,2.00
2023-02-04T13:25:05.554Z,1.53
2023-02-04T13:27:32.435Z,1.40
2023-02-04T13:29:59.428Z,1.30
2023-02-04T13:32:26.284Z,1.03
2023-02-04T13:34:53.086Z,0.90
2023-02-04T13:37:19.966Z,1.37
2023-02-04T13:39:46.755Z,0.57
2023-02-04T13:42:13.718Z,0.50
2023-02-04T13:44:40.541Z,0.70
2023-02-04T13:47:07.538Z,1.10
2023-02-04T13:49:34.531Z,0.60
2023-02-04T13:52:01.557Z,0.53
2023-02-04T13:54:28.409Z,0.60
2023-02-04T13:56:55.375Z,0.53
2023-02-04T13:59:22.191Z,0.60
2023-02-04T14:01:49.047Z,1.37
2023-02-04T14:04:15.917Z,0.77
2023-02-04T14:06:45.413Z,0.73
2023-02-04T14:09:12.901Z,0.83
2023-02-04T14:11:40.381Z,0.77
2023-02-04T14:14:07.507Z,0.67
2023-02-04T14:16:36.333Z,0.40
2023-02-04T14:19:05.420Z,0.60
2023-02-04T14:21:33.067Z,0.70
2023-02-04T14:23:59.933Z,0.97
2023-02-04T14:26:26.899Z,0.83
2023-02-04T14:28:53.698Z,0.70
2023-02-04T14:31:21.699Z,0.50
2023-02-04T14:33:50.362Z,0.97
2023-02-04T14:36:17.372Z,0.60
2023-02-04T14:38:44.281Z,1.00
2023-02-04T14:41:16.121Z,0.77
2023-02-04T14:43:42.975Z,0.70
2023-02-04T14:46:09.898Z,1.20
2023-02-04T14:48:36.865Z,0.53
2023-02-04T14:51:04.687Z,0.70
2023-02-04T14:53:31.564Z,0.63
2023-02-04T14:55:58.785Z,0.90
2023-02-04T14:58:27.833Z,2.47
2023-02-04T15:00:54.959Z,0.77
2023-02-04T15:03:21.896Z,2.90
2023-02-04T15:05:48.709Z,1.13
2023-02-04T15:08:15.539Z,0.70
2023-02-04T15:10:42.392Z,1.07
2023-02-04T15:13:09.332Z,2.13
2023-02-04T15:15:36.122Z,0.97
2023-02-04T15:18:02.943Z,0.63
2023-02-04T15:20:29.824Z,1.00
2023-02-04T15:22:56.906Z,1.90
2023-02-04T15:25:24.644Z,1.20
2023-02-04T15:27:51.619Z,1.30
2023-02-04T15:30:18.770Z,1.10
2023-02-04T15:32:46.092Z,0.80
2023-02-04T15:35:13.832Z,0.57
2023-02-04T15:37:40.692Z,1.57
2023-02-04T15:40:08.732Z,1.17
2023-02-04T15:42:36.572Z,0.60
2023-02-04T15:45:04.820Z,1.47
2023-02-04T15:47:31.701Z,1.10
2023-02-04T15:49:58.524Z,0.93
2023-02-04T15:52:26.039Z,1.70
2023-02-04T15:54:53.520Z,1.43
2023-02-04T15:57:20.401Z,0.80
2023-02-04T15:59:47.420Z,1.30
2023-02-04T16:02:14.323Z,0.77
2023-02-04T16:04:45.065Z,0.93
2023-02-04T16:07:12.391Z,0.80
2023-02-04T16:09:39.695Z,0.80
2023-02-04T16:12:06.894Z,1.20
2023-02-04T16:14:33.762Z,1.43
2023-02-04T16:17:01.799Z,11.77
2023-02-04T16:19:29.314Z,28.30
2023-02-04T16:21:56.273Z,14.40
2023-02-04T16:24:23.206Z,3.53
2023-02-04T16:26:50.137Z,4.80
2023-02-04T16:29:17.337Z,1.60
2023-02-04T16:31:44.330Z,1.93
2023-02-04T16:34:11.295Z,1.90
2023-02-04T16:36:38.145Z,2.03
2023-02-04T16:39:05.128Z,2.17
2023-02-04T16:41:31.993Z,1.70
2023-02-04T16:44:00.178Z,1.07
2023-02-04T16:46:28.665Z,1.63
2023-02-04T16:48:55.531Z,2.40
2023-02-04T16:51:22.346Z,1.10
2023-02-04T16:53:50.390Z,1.43
2023-02-04T16:56:17.191Z,1.20
2023-02-04T16:58:44.788Z,1.10
2023-02-04T17:01:11.720Z,2.30
2023-02-04T17:03:38.641Z,1.90
2023-02-04T17:06:06.224Z,2.23
2023-02-04T17:08:33.363Z,1.60
2023-02-04T17:11:19.223Z,2.30
2023-02-04T17:13:46.060Z,2.80
2023-02-04T17:16:13.017Z,5.20
2023-02-04T17:18:39.951Z,4.00
2023-02-04T17:21:06.865Z,2.97
2023-02-04T17:23:35.299Z,3.13
2023-02-04T17:26:02.218Z,2.70
2023-02-04T17:28:29.063Z,3.20
2023-02-04T17:30:56.056Z,3.20
2023-02-04T17:33:23.056Z,4.40
2023-02-04T17:35:49.953Z,3.33
2023-02-04T17:38:16.800Z,3.33
2023-02-04T17:40:44.099Z,3.27
2023-02-04T17:43:10.952Z,4.23
2023-02-04T17:45:38.166Z,8.07
2023-02-04T17:48:06.342Z,7.73
2023-02-04T17:53:10.442Z,5.13
2023-02-04T17:55:39.658Z,5.33
2023-02-04T17:58:22.373Z,4.83
2023-02-04T18:00:53.215Z,3.90
2023-02-04T18:03:22.863Z,3.63
2023-02-04T18:05:54.347Z,4.30
2023-02-04T18:08:31.718Z,5.97
2023-02-04T18:10:58.773Z,4.03
2023-02-04T18:13:32.742Z,3.47
2023-02-04T18:16:08.184Z,2.53
2023-02-04T18:18:40.691Z,3.20
2023-02-04T18:21:22.480Z,3.23
2023-02-04T18:24:09.504Z,3.23
2023-02-04T18:26:47.165Z,4.13
2023-02-04T18:29:34.744Z,3.10
2023-02-04T18:32:28.636Z,2.50
2023-02-04T18:34:57.643Z,2.87
2023-02-04T18:37:36.890Z,4.00
2023-02-04T18:40:09.724Z,3.13
2023-02-04T18:42:40.427Z,2.20
2023-02-04T18:45:19.855Z,1.90
2023-02-04T18:47:46.991Z,2.00
2023-02-04T18:50:35.375Z,2.20
2023-02-04T18:53:27.155Z,2.60
2023-02-04T18:56:00.529Z,2.33
2023-02-04T18:58:37.622Z,2.50
2023-02-04T19:01:27.468Z,2.27
2023-02-04T19:03:55.695Z,1.83
2023-02-04T19:06:40.175Z,3.50
2023-02-04T19:09:13.467Z,2.13
2023-02-04T19:11:54.810Z,2.00
2023-02-04T19:14:29.205Z,2.87
2023-02-04T19:17:28.107Z,2.10
2023-02-04T19:20:16.466Z,2.40
2023-02-04T19:22:54.015Z,2.67
2023-02-04T19:25:40.143Z,2.43
2023-02-04T19:28:37.145Z,3.00
2023-02-04T19:31:08.053Z,2.97
2023-02-04T19:33:42.672Z,2.30
2023-02-04T19:36:38.100Z,2.43
2023-02-04T19:39:35.409Z,3.90
2023-02-04T19:42:02.418Z,3.47
2023-02-04T19:44:46.308Z,2.73
2023-02-04T19:47:21.947Z,3.47
2023-02-04T19:49:48.978Z,4.03
2023-02-04T19:52:43.757Z,3.37
2023-02-04T19:55:33.704Z,3.90
2023-02-04T19:58:24.010Z,3.10
2023-02-04T20:01:02.143Z,3.60
2023-02-04T20:03:43.115Z,2.97
2023-02-04T20:06:37.149Z,3.47
2023-02-04T20:09:23.414Z,3.57
2023-02-04T20:12:11.641Z,3.37
2023-02-04T20:14:49.558Z,4.80
2023-02-04T20:17:39.052Z,3.87
2023-02-04T20:20:31.663Z,4.83
2023-02-04T20:23:14.835Z,4.47
2023-02-04T20:25:46.800Z,3.50
2023-02-04T20:28:24.001Z,5.13
2023-02-04T20:30:52.359Z,3.73
2023-02-04T20:33:48.906Z,4.83
2023-02-04T20:36:35.733Z,4.40
2023-02-04T20:39:37.086Z,4.43
2023-02-04T20:42:22.675Z,3.90
2023-02-04T20:44:49.673Z,4.60
2023-02-04T20:47:19.080Z,3.83
2023-02-04T20:49:58.093Z,4.80
2023-02-04T20:52:40.150Z,4.20
2023-02-04T20:55:27.828Z,4.10
2023-02-04T20:58:17.795Z,4.10
2023-02-04T21:00:48.599Z,4.20
2023-02-04T21:03:37.792Z,4.40
2023-02-04T21:06:21.318Z,5.23
2023-02-04T21:08:51.708Z,4.43
2023-02-04T21:11:18.856Z,4.20
2023-02-04T21:13:45.724Z,4.70
2023-02-04T21:16:12.588Z,4.43
2023-02-04T21:18:39.723Z,4.57
2023-02-04T21:21:08.501Z,4.83
2023-02-04T21:23:36.708Z,3.23
2023-02-04T21:26:04.696Z,3.60
2023-02-04T21:28:32.404Z,4.30
2023-02-04T21:31:00.312Z,5.90
2023-02-04T21:33:27.545Z,3.70
2023-02-04T21:35:54.610Z,4.87
2023-02-04T21:38:21.436Z,4.07
2023-02-04T21:40:48.359Z,3.83
2023-02-04T21:43:15.255Z,3.90
2023-02-04T21:45:42.074Z,3.67
2023-02-04T21:48:09.021Z,3.33
2023-02-04T21:50:38.394Z,3.37
2023-02-04T21:53:07.419Z,3.23
2023-02-04T21:55:35.661Z,3.33
2023-02-04T21:58:02.693Z,4.53
2023-02-04T22:00:29.981Z,3.77
2023-02-04T22:02:56.998Z,4.33
2023-02-04T22:05:24.359Z,3.97
2023-02-04T22:08:00.123Z,5.94
2023-02-04T22:10:27.042Z,4.83
2023-02-04T22:12:53.901Z,4.63
2023-02-04T22:15:21.559Z,3.67
2023-02-04T22:17:49.253Z,5.03
2023-02-04T22:20:17.148Z,4.33
2023-02-04T22:22:47.641Z,3.70
2023-02-04T22:25:17.497Z,4.60
2023-02-04T22:27:44.512Z,4.33
2023-02-04T22:30:13.540Z,4.20
2023-02-04T22:32:40.637Z,3.97
2023-02-04T22:35:12.244Z,3.70
2023-02-04T22:37:41.150Z,2.87
2023-02-04T22:40:10.262Z,3.67
2023-02-04T22:42:37.108Z,4.20
2023-02-04T22:45:04.985Z,3.97
2023-02-04T22:47:32.234Z,3.47
2023-02-04T22:49:59.073Z,3.87
2023-02-04T22:52:26.023Z,4.97
2023-02-04T22:54:53.451Z,3.63
2023-02-04T22:57:20.266Z,3.10
2023-02-04T22:59:47.103Z,3.20
2023-02-04T23:02:14.306Z,4.23
2023-02-04T23:04:43.902Z,3.50
2023-02-04T23:07:12.372Z,4.43
2023-02-04T23:09:39.710Z,3.53
2023-02-04T23:12:12.920Z,4.10
2023-02-04T23:14:46.947Z,4.23
2023-02-04T23:17:15.818Z,4.07
2023-02-04T23:19:43.227Z,4.10
2023-02-04T23:22:12.668Z,4.07
2023-02-04T23:24:40.850Z,3.97
2023-02-04T23:27:09.285Z,4.33
2023-02-04T23:29:36.200Z,5.27
2023-02-04T23:32:04.087Z,3.70
2023-02-04T23:34:31.577Z,5.40
2023-02-04T23:36:58.478Z,4.67
2023-02-04T23:39:25.336Z,3.07
2023-02-04T23:41:52.720Z,3.90
2023-02-04T23:44:19.681Z,4.43
2023-02-04T23:46:46.534Z,3.50
2023-02-04T23:49:13.744Z,4.23
2023-02-04T23:51:40.641Z,3.83
2023-02-04T23:54:07.690Z,4.80
2023-02-04T23:56:34.952Z,4.07
2023-02-04T23:59:02.310Z,4.43
